Time;durP1;ratioP1;P1;durP2;ratioP2;P2;SDS_P1;SDS_P2;PMS_P1;PMS_P2;Temp;Humidity;BMP_temperature;BMP_pressure;BME280_temperature;BME280_humidity;BME280_pressure;Samples;Min_cycle;Max_cycle;Signal;HPM_P1;HPM_P2
2021/01/11 00:01:22;;;;;;;44.65;20.88;;;2.90;65.50;;;;;;5010052;28;20471;-73
2021/01/11 00:03:48;;;;;;;40.83;21.20;;;2.90;64.60;;;;;;5009829;28;20920;-72
2021/01/11 00:06:14;;;;;;;38.90;21.70;;;2.80;65.00;;;;;;5012700;28;20416;-72
2021/01/11 00:08:39;;;;;;;41.93;21.03;;;2.80;65.50;;;;;;5011857;28;20730;-71
2021/01/11 00:11:05;;;;;;;35.53;20.80;;;2.90;65.50;;;;;;5010916;28;20419;-72
2021/01/11 00:13:30;;;;;;;35.07;19.93;;;3.00;64.50;;;;;;5008628;28;20804;-72
2021/01/11 00:15:56;;;;;;;33.30;19.10;;;3.10;64.40;;;;;;4993423;28;20426;-71
2021/01/11 00:18:21;;;;;;;31.83;17.88;;;3.10;62.20;;;;;;4998571;28;20940;-71
2021/01/11 00:20:47;;;;;;;33.53;19.25;;;3.00;61.90;;;;;;5012123;28;20479;-71
2021/01/11 00:23:12;;;;;;;33.33;18.08;;;3.00;60.10;;;;;;5010195;28;20432;-71
2021/01/11 00:25:38;;;;;;;31.55;17.20;;;3.00;58.90;;;;;;5012497;28;20716;-71
2021/01/11 00:28:03;;;;;;;33.30;18.30;;;3.10;56.00;;;;;;5012130;28;20404;-75
2021/01/11 00:30:29;;;;;;;32.20;17.20;;;3.20;54.40;;;;;;5010820;28;20860;-72
2021/01/11 00:32:54;;;;;;;35.20;17.87;;;3.20;54.50;;;;;;5012787;28;20397;-72
2021/01/11 00:35:20;;;;;;;30.30;17.50;;;3.20;54.00;;;;;;5014503;28;20523;-72
2021/01/11 00:37:45;;;;;;;31.50;18.97;;;3.30;54.00;;;;;;5014122;28;20399;-73
2021/01/11 00:40:11;;;;;;;32.28;18.05;;;3.30;52.40;;;;;;5014895;28;20407;-72
2021/01/11 00:42:37;;;;;;;31.75;17.80;;;3.30;52.40;;;;;;5015818;28;20488;-72
2021/01/11 00:45:05;;;;;;;34.85;17.88;;;3.20;53.10;;;;;;5016189;28;20389;-72
2021/01/11 00:47:30;;;;;;;31.73;18.08;;;3.20;53.80;;;;;;5013088;28;20423;-72
2021/01/11 00:49:56;;;;;;;34.43;18.50;;;3.20;53.70;;;;;;5015111;28;20401;-72
2021/01/11 00:52:21;;;;;;;29.40;17.70;;;3.30;52.90;;;;;;5015938;28;20470;-72
2021/01/11 00:54:47;;;;;;;30.33;17.17;;;3.30;51.80;;;;;;5015904;28;20385;-72
2021/01/11 00:57:12;;;;;;;26.87;17.00;;;3.30;51.80;;;;;;5014803;28;20389;-71
2021/01/11 00:59:38;;;;;;;38.05;18.80;;;3.30;51.70;;;;;;5014804;28;20389;-71
2021/01/11 01:02:04;;;;;;;29.92;17.85;;;3.20;52.40;;;;;;5014498;28;20897;-74
2021/01/11 01:04:29;;;;;;;29.98;16.90;;;3.20;53.00;;;;;;5015297;28;20393;-71
2021/01/11 01:07:01;;;;;;;29.57;17.20;;;3.30;51.80;;;;;;5015054;28;20758;-72
2021/01/11 01:09:27;;;;;;;30.25;18.52;;;3.30;51.60;;;;;;5015095;28;20417;-72
2021/01/11 01:11:52;;;;;;;35.83;19.23;;;3.30;50.80;;;;;;5015087;28;20455;-72
2021/01/11 01:14:18;;;;;;;33.80;20.00;;;3.30;50.70;;;;;;5004200;28;20478;-72
2021/01/11 01:16:43;;;;;;;28.57;16.83;;;3.30;51.90;;;;;;4999999;28;20396;-72
2021/01/11 01:19:09;;;;;;;30.80;19.00;;;3.30;52.10;;;;;;5014271;28;20608;-71
2021/01/11 01:21:34;;;;;;;33.07;19.23;;;3.30;51.50;;;;;;5013915;28;20388;-72
2021/01/11 01:24:00;;;;;;;33.63;19.07;;;3.30;51.20;;;;;;5013610;28;20411;-71
2021/01/11 01:26:25;;;;;;;37.70;18.67;;;3.40;51.30;;;;;;5013188;28;20381;-72
2021/01/11 01:28:51;;;;;;;34.27;17.83;;;3.40;52.50;;;;;;5012837;28;20886;-72
2021/01/11 01:31:16;;;;;;;33.85;18.75;;;3.30;52.00;;;;;;5012841;28;20821;-73
2021/01/11 01:33:42;;;;;;;27.45;16.83;;;3.30;52.00;;;;;;5012794;28;20479;-73
2021/01/11 01:36:08;;;;;;;30.40;18.00;;;3.30;52.50;;;;;;5011907;28;20432;-73
2021/01/11 01:38:33;;;;;;;29.60;18.13;;;3.30;52.30;;;;;;5011801;28;20492;-73
2021/01/11 01:40:59;;;;;;;31.50;18.27;;;3.20;52.70;;;;;;5011853;28;20920;-76
2021/01/11 01:43:24;;;;;;;31.03;18.43;;;3.30;52.60;;;;;;5012450;28;20385;-72
2021/01/11 01:45:50;;;;;;;29.92;18.25;;;3.30;53.20;;;;;;5012233;28;20431;-74
2021/01/11 01:48:16;;;;;;;30.55;17.77;;;3.30;52.00;;;;;;5012459;28;20397;-73
2021/01/11 01:50:42;;;;;;;28.98;17.42;;;3.30;52.10;;;;;;5012105;28;20491;-75
2021/01/11 01:53:08;;;;;;;30.60;18.43;;;3.40;51.90;;;;;;5011928;28;20389;-73
2021/01/11 01:55:36;;;;;;;35.03;19.63;;;3.40;51.20;;;;;;5011058;28;20393;-73
2021/01/11 01:58:04;;;;;;;39.22;19.58;;;3.40;50.00;;;;;;5011788;28;20396;-73
2021/01/11 02:00:30;;;;;;;35.20;19.80;;;3.40;48.90;;;;;;5011271;28;20395;-74
2021/01/11 02:02:56;;;;;;;36.13;21.50;;;3.40;48.30;;;;;;5011531;28;20381;-73
2021/01/11 02:05:21;;;;;;;38.40;21.03;;;3.40;48.70;;;;;;5011155;28;20459;-72
2021/01/11 02:07:59;;;;;;;39.50;22.15;;;3.30;49.30;;;;;;5013134;28;20446;-73
2021/01/11 02:11:01;;;;;;;37.08;22.67;;;3.30;49.80;;;;;;5012608;28;20408;-72
2021/01/11 02:13:29;;;;;;;38.13;22.05;;;3.30;50.10;;;;;;5003622;28;20434;-73
2021/01/11 02:16:13;;;;;;;37.95;21.73;;;3.30;50.20;;;;;;5013043;28;20389;-73
2021/01/11 02:18:50;;;;;;;41.90;21.13;;;3.20;51.30;;;;;;5012577;28;20392;-72
2021/01/11 02:21:18;;;;;;;37.35;22.52;;;3.30;50.70;;;;;;5012626;28;20389;-72
2021/01/11 02:24:15;;;;;;;34.58;20.88;;;3.30;51.00;;;;;;5012247;28;20813;-73
2021/01/11 02:27:18;;;;;;;39.95;21.80;;;3.30;51.20;;;;;;5010615;28;20742;-72
2021/01/11 02:30:02;;;;;;;38.28;22.10;;;3.30;50.90;;;;;;4993594;28;20386;-72
2021/01/11 02:32:30;;;;;;;39.43;22.90;;;3.30;51.40;;;;;;4994305;28;20393;-72
2021/01/11 02:34:58;;;;;;;39.22;22.75;;;3.30;50.80;;;;;;5005494;28;20396;-72
2021/01/11 02:37:24;;;;;;;39.00;23.17;;;3.20;50.60;;;;;;5011443;28;20384;-73
2021/01/11 02:39:51;;;;;;;41.73;22.90;;;3.20;50.90;;;;;;5010406;28;20389;-71
2021/01/11 02:42:16;;;;;;;45.33;23.33;;;3.20;50.70;;;;;;5014263;28;20384;-72
2021/01/11 02:44:42;;;;;;;37.67;22.45;;;3.20;50.80;;;;;;5013178;28;20410;-72
2021/01/11 02:47:08;;;;;;;39.22;23.60;;;3.20;51.10;;;;;;5013913;28;20392;-71
2021/01/11 02:49:47;;;;;;;39.30;22.10;;;3.20;51.30;;;;;;5013682;28;20801;-72
2021/01/11 02:52:23;;;;;;;37.20;22.77;;;3.30;51.50;;;;;;5013929;28;20484;-72
2021/01/11 02:54:59;;;;;;;41.05;23.10;;;3.20;51.30;;;;;;5013126;28;20430;-72
2021/01/11 02:57:47;;;;;;;40.97;23.08;;;3.30;50.40;;;;;;5013770;28;20377;-71
2021/01/11 03:00:14;;;;;;;39.80;24.15;;;3.30;50.70;;;;;;5013130;28;20479;-72
2021/01/11 03:02:45;;;;;;;38.22;22.77;;;3.20;50.80;;;;;;5013085;28;20397;-72
2021/01/11 03:05:13;;;;;;;40.35;23.25;;;3.20;51.40;;;;;;5012183;28;20396;-71
2021/01/11 03:07:39;;;;;;;41.20;23.73;;;3.20;51.20;;;;;;5012389;28;20467;-71
2021/01/11 03:10:05;;;;;;;41.47;24.08;;;3.20;51.50;;;;;;5010474;28;20404;-72
2021/01/11 03:12:31;;;;;;;41.72;24.27;;;3.20;51.40;;;;;;5010191;28;20488;-72
2021/01/11 03:14:57;;;;;;;42.22;24.42;;;3.20;51.60;;;;;;5006294;28;20930;-71
2021/01/11 03:17:22;;;;;;;42.40;23.70;;;3.30;51.10;;;;;;5010199;28;20377;-72
2021/01/11 03:19:48;;;;;;;45.33;25.37;;;3.20;51.50;;;;;;5011689;28;20388;-72
2021/01/11 03:22:13;;;;;;;39.13;23.20;;;3.20;51.20;;;;;;5013483;28;20855;-71
2021/01/11 03:24:40;;;;;;;40.07;22.10;;;3.20;50.40;;;;;;5014048;28;20420;-72
2021/01/11 03:27:05;;;;;;;47.80;23.00;;;3.20;51.20;;;;;;5013005;28;20385;-72
2021/01/11 03:29:31;;;;;;;38.17;22.20;;;3.20;50.30;;;;;;5011715;28;20750;-72
2021/01/11 03:31:57;;;;;;;36.03;21.48;;;3.20;50.70;;;;;;5011686;28;20746;-73
2021/01/11 03:34:22;;;;;;;39.40;22.95;;;3.30;50.20;;;;;;5011746;28;20846;-73
2021/01/11 03:36:48;;;;;;;48.10;24.03;;;3.30;49.50;;;;;;5014115;28;20380;-73
2021/01/11 03:39:13;;;;;;;39.60;22.07;;;3.20;50.20;;;;;;5016589;28;20421;-72
2021/01/11 03:41:41;;;;;;;41.27;22.60;;;3.20;50.30;;;;;;5016591;28;20948;-72
2021/01/11 03:44:08;;;;;;;40.67;22.65;;;3.20;49.60;;;;;;5017253;28;20461;-71
2021/01/11 03:46:34;;;;;;;44.35;22.65;;;3.20;50.00;;;;;;5017058;28;20403;-72
2021/01/11 03:48:59;;;;;;;38.63;22.13;;;3.20;50.60;;;;;;5018278;28;20401;-71
2021/01/11 03:51:25;;;;;;;36.50;21.88;;;3.30;50.60;;;;;;5017174;28;20478;-71
2021/01/11 03:53:51;;;;;;;41.80;23.63;;;3.30;49.80;;;;;;5013558;28;20422;-74
2021/01/11 03:56:17;;;;;;;43.28;23.60;;;3.20;50.20;;;;;;5013469;28;20396;-72
2021/01/11 03:58:42;;;;;;;44.33;24.05;;;3.20;50.60;;;;;;5013326;28;20762;-73
2021/01/11 04:01:08;;;;;;;43.00;24.60;;;3.20;50.80;;;;;;5014642;28;20388;-73
2021/01/11 04:03:33;;;;;;;44.93;25.17;;;3.10;52.00;;;;;;5016770;28;20408;-71
2021/01/11 04:05:59;;;;;;;44.87;25.20;;;3.10;52.80;;;;;;5016342;28;20401;-71
2021/01/11 04:08:26;;;;;;;47.08;26.30;;;3.10;52.60;;;;;;5017107;28;20878;-71
2021/01/11 04:10:52;;;;;;;46.55;26.55;;;3.10;53.20;;;;;;5017065;28;20421;-73
2021/01/11 04:13:19;;;;;;;45.58;26.67;;;3.10;53.10;;;;;;5013496;28;20385;-71
2021/01/11 04:15:45;;;;;;;48.58;25.70;;;3.20;52.50;;;;;;5009799;28;20432;-74
2021/01/11 04:18:11;;;;;;;53.85;28.50;;;3.10;52.20;;;;;;5012953;28;20395;-73
2021/01/11 04:20:36;;;;;;;49.83;29.13;;;3.10;53.20;;;;;;5012430;28;20902;-71
2021/01/11 04:23:03;;;;;;;53.80;30.07;;;3.00;54.00;;;;;;5012817;28;20859;-71
2021/01/11 04:25:29;;;;;;;53.50;29.98;;;3.00;54.30;;;;;;5012029;28;20455;-72
2021/01/11 04:28:04;;;;;;;51.33;27.98;;;2.90;54.80;;;;;;5012846;28;20902;-71
2021/01/11 04:30:29;;;;;;;51.58;28.33;;;3.00;53.90;;;;;;5012259;28;20405;-72
2021/01/11 04:32:55;;;;;;;57.65;28.30;;;2.90;55.00;;;;;;5013063;28;20435;-72
2021/01/11 04:35:25;;;;;;;52.30;28.40;;;3.00;54.50;;;;;;5010691;28;20401;-72
2021/01/11 04:37:50;;;;;;;51.85;26.50;;;3.00;54.80;;;;;;5012641;28;20385;-71
2021/01/11 04:40:16;;;;;;;50.65;27.00;;;3.00;54.80;;;;;;5013144;28;20446;-72
2021/01/11 04:42:53;;;;;;;58.50;29.65;;;3.00;54.60;;;;;;5013190;28;20397;-72
2021/01/11 04:45:19;;;;;;;48.45;27.30;;;3.00;54.80;;;;;;5012014;28;20401;-73
2021/01/11 04:47:50;;;;;;;50.70;27.98;;;2.90;55.30;;;;;;5012819;28;20901;-71
2021/01/11 04:50:18;;;;;;;48.47;26.55;;;3.00;55.30;;;;;;5011638;28;20417;-72
2021/01/11 04:52:45;;;;;;;53.50;27.15;;;2.90;55.20;;;;;;5012990;28;20442;-72
2021/01/11 04:55:12;;;;;;;50.60;28.02;;;3.00;54.60;;;;;;5012326;28;20397;-72
2021/01/11 04:57:49;;;;;;;50.97;28.02;;;3.00;55.20;;;;;;5012600;28;20385;-72
2021/01/11 05:00:19;;;;;;;52.72;29.10;;;2.90;55.90;;;;;;5012194;28;20393;-73
2021/01/11 05:02:45;;;;;;;49.30;28.20;;;2.90;55.40;;;;;;5012340;28;20867;-73
2021/01/11 05:05:12;;;;;;;49.38;27.35;;;3.00;55.30;;;;;;5012109;28;20543;-73
2021/01/11 05:07:38;;;;;;;51.20;27.40;;;2.90;55.30;;;;;;5012118;28;20464;-73
2021/01/11 05:10:04;;;;;;;51.53;27.47;;;2.90;56.30;;;;;;5015441;28;20960;-72
2021/01/11 05:12:30;;;;;;;49.42;27.85;;;2.90;56.00;;;;;;5016335;28;20455;-72
2021/01/11 05:15:15;;;;;;;52.10;29.10;;;2.90;56.00;;;;;;5006408;28;20459;-72
2021/01/11 05:17:45;;;;;;;48.50;28.00;;;2.90;55.80;;;;;;5010607;28;20384;-73
2021/01/11 05:20:18;;;;;;;53.05;29.95;;;3.00;55.00;;;;;;5011640;28;20492;-72
2021/01/11 05:22:47;;;;;;;54.40;31.10;;;3.00;54.80;;;;;;5011714;28;20495;-72
2021/01/11 05:25:18;;;;;;;54.70;31.45;;;3.00;56.10;;;;;;5010882;28;20408;-72
2021/01/11 05:27:44;;;;;;;61.35;32.40;;;3.00;56.00;;;;;;5011069;28;20809;-71
2021/01/11 05:30:22;;;;;;;59.65;33.65;;;3.00;56.50;;;;;;5011170;28;20854;-72
2021/01/11 05:32:48;;;;;;;66.47;34.08;;;2.90;56.80;;;;;;5010123;28;20385;-72
2021/01/11 05:35:22;;;;;;;65.63;35.15;;;3.00;56.60;;;;;;5010742;28;20454;-73
2021/01/11 05:37:47;;;;;;;62.53;34.17;;;3.00;56.90;;;;;;5013093;28;20420;-71
2021/01/11 05:40:18;;;;;;;66.07;36.30;;;3.00;56.40;;;;;;5015348;28;20436;-71
2021/01/11 05:42:49;;;;;;;68.15;35.80;;;3.00;56.50;;;;;;5014922;28;20403;-71
2021/01/11 05:45:28;;;;;;;67.00;36.90;;;2.90;57.20;;;;;;5015738;28;20483;-71
2021/01/11 05:47:59;;;;;;;61.85;34.33;;;3.00;57.00;;;;;;5016020;28;20396;-73
2021/01/11 05:50:45;;;;;;;67.22;34.55;;;3.00;56.80;;;;;;5015322;28;20400;-72
2021/01/11 05:53:16;;;;;;;63.00;33.80;;;3.10;55.60;;;;;;5015660;28;20467;-71
2021/01/11 05:55:42;;;;;;;62.40;33.88;;;3.10;55.70;;;;;;5015223;28;20416;-72
2021/01/11 05:58:08;;;;;;;64.28;33.65;;;3.10;56.30;;;;;;5011577;28;20889;-71
2021/01/11 06:00:35;;;;;;;58.95;32.85;;;3.10;55.70;;;;;;5012377;28;20421;-72
2021/01/11 06:03:02;;;;;;;52.97;29.63;;;3.20;56.00;;;;;;5012577;28;20401;-71
2021/01/11 06:05:30;;;;;;;55.67;30.85;;;3.20;55.60;;;;;;5013251;28;20751;-72
2021/01/11 06:07:56;;;;;;;51.72;29.85;;;3.10;56.30;;;;;;5012726;28;20816;-71
2021/01/11 06:10:23;;;;;;;55.47;31.38;;;3.20;55.40;;;;;;5012572;28;20400;-71
2021/01/11 06:12:50;;;;;;;52.58;30.30;;;3.30;55.60;;;;;;5012435;28;20400;-71
2021/01/11 06:15:20;;;;;;;53.05;30.92;;;3.20;55.30;;;;;;5011575;28;20401;-72
2021/01/11 06:17:48;;;;;;;57.55;30.45;;;3.20;55.60;;;;;;5013578;28;20377;-71
2021/01/11 06:20:19;;;;;;;61.50;31.63;;;3.20;56.20;;;;;;5012383;28;20416;-71
2021/01/11 06:22:45;;;;;;;53.17;29.27;;;3.20;56.20;;;;;;5012338;28;20381;-71
2021/01/11 06:25:26;;;;;;;51.23;29.83;;;3.30;55.20;;;;;;5013582;28;20770;-70
2021/01/11 06:27:56;;;;;;;56.75;30.52;;;3.40;54.50;;;;;;5015409;28;20405;-70
2021/01/11 06:30:34;;;;;;;57.03;29.85;;;3.30;55.20;;;;;;5012447;28;20404;-72
2021/01/11 06:33:06;;;;;;;55.60;29.58;;;3.30;55.70;;;;;;5010717;28;20744;-72
2021/01/11 06:35:48;;;;;;;53.35;29.98;;;3.20;56.50;;;;;;5011584;28;20388;-71
2021/01/11 06:38:28;;;;;;;54.80;29.48;;;3.30;56.10;;;;;;5011742;28;20413;-72
2021/01/11 06:41:10;;;;;;;48.55;28.83;;;3.30;56.40;;;;;;5014182;28;20389;-71
2021/01/11 06:43:52;;;;;;;50.40;29.50;;;3.20;56.60;;;;;;5010970;28;20890;-72
2021/01/11 06:46:29;;;;;;;50.15;27.75;;;3.30;56.70;;;;;;5009987;28;20395;-71
2021/01/11 06:49:00;;;;;;;47.83;27.75;;;3.30;56.20;;;;;;5010674;28;20475;-72
2021/01/11 06:51:35;;;;;;;49.45;27.67;;;3.40;55.60;;;;;;5010825;28;20417;-72
2021/01/11 06:54:08;;;;;;;44.45;24.98;;;3.40;55.40;;;;;;5009751;28;20814;-72
2021/01/11 06:56:36;;;;;;;42.90;24.98;;;3.50;54.80;;;;;;5010171;28;20455;-72
2021/01/11 06:59:23;;;;;;;44.33;26.50;;;3.50;54.20;;;;;;5009974;28;20488;-73
2021/01/11 07:01:48;;;;;;;48.47;26.98;;;3.40;55.10;;;;;;5008967;28;20397;-72
2021/01/11 07:04:35;;;;;;;39.92;24.73;;;3.50;54.50;;;;;;5009495;28;20802;-73
2021/01/11 07:07:02;;;;;;;41.47;24.83;;;3.50;54.40;;;;;;5009796;28;20396;-72
2021/01/11 07:09:28;;;;;;;42.95;25.45;;;3.40;54.90;;;;;;5009785;28;20411;-72
2021/01/11 07:12:03;;;;;;;46.43;25.83;;;3.40;55.30;;;;;;5010996;28;20455;-73
2021/01/11 07:15:07;;;;;;;44.60;25.23;;;3.50;54.50;;;;;;5013558;28;20404;-72
2021/01/11 07:17:42;;;;;;;44.92;26.33;;;3.40;55.10;;;;;;5013948;28;20810;-72
2021/01/11 07:20:12;;;;;;;39.33;24.92;;;3.40;55.10;;;;;;5013588;28;20380;-72
2021/01/11 07:22:39;;;;;;;39.83;25.10;;;3.40;54.30;;;;;;5015726;28;20755;-71
2021/01/11 07:25:20;;;;;;;40.10;24.27;;;3.40;54.60;;;;;;5013621;28;20403;-72
2021/01/11 07:27:46;;;;;;;41.33;24.88;;;3.50;53.70;;;;;;5013788;28;20491;-72
2021/01/11 07:30:12;;;;;;;39.80;24.52;;;3.40;53.80;;;;;;5013382;28;20456;-72
2021/01/11 07:32:38;;;;;;;40.00;23.67;;;3.40;53.30;;;;;;5013051;28;20790;-72
2021/01/11 07:35:04;;;;;;;42.17;23.43;;;3.40;52.90;;;;;;5014295;28;20385;-74
2021/01/11 07:37:30;;;;;;;40.45;24.15;;;3.40;53.10;;;;;;5018189;28;20399;-73
2021/01/11 07:39:55;;;;;;;42.77;24.73;;;3.40;53.30;;;;;;5018143;28;20424;-73
2021/01/11 07:42:21;;;;;;;40.23;23.33;;;3.40;53.60;;;;;;5017127;28;20392;-72
2021/01/11 07:44:47;;;;;;;40.03;24.55;;;3.50;52.50;;;;;;5018304;28;20530;-72
2021/01/11 07:47:15;;;;;;;38.85;23.80;;;3.50;52.80;;;;;;5017936;28;20867;-73
2021/01/11 07:49:42;;;;;;;44.67;24.37;;;3.60;52.10;;;;;;5016660;28;20393;-71
2021/01/11 07:52:20;;;;;;;45.85;25.17;;;3.50;51.50;;;;;;5016316;28;20408;-72
2021/01/11 07:54:56;;;;;;;42.78;23.95;;;3.50;52.10;;;;;;5012459;28;20411;-72
2021/01/11 07:57:26;;;;;;;39.15;23.10;;;3.50;52.70;;;;;;5013193;28;20486;-73
2021/01/11 07:59:59;;;;;;;43.00;23.52;;;3.40;52.40;;;;;;5013304;28;20488;-72
2021/01/11 08:02:26;;;;;;;35.00;22.52;;;3.30;53.10;;;;;;4994144;28;20400;-72
2021/01/11 08:04:51;;;;;;;41.97;23.08;;;3.40;52.60;;;;;;5012469;28;20467;-73
2021/01/11 08:07:32;;;;;;;40.50;22.33;;;3.40;51.80;;;;;;5013289;28;20397;-71
2021/01/11 08:10:00;;;;;;;41.00;23.83;;;3.60;51.70;;;;;;5012265;28;20447;-73
2021/01/11 08:12:29;;;;;;;41.00;23.10;;;3.50;51.70;;;;;;5012453;28;20424;-72
2021/01/11 08:15:06;;;;;;;38.05;22.15;;;3.60;51.60;;;;;;5013904;28;20392;-71
2021/01/11 08:17:32;;;;;;;44.33;23.83;;;3.60;52.00;;;;;;5012374;28;20392;-73
2021/01/11 08:19:59;;;;;;;41.22;24.25;;;3.50;52.60;;;;;;5012455;28;20385;-72
2021/01/11 08:22:27;;;;;;;38.55;22.42;;;3.50;53.50;;;;;;5012344;28;20763;-71
2021/01/11 08:24:57;;;;;;;43.00;24.10;;;3.60;52.20;;;;;;5011279;28;20854;-73
2021/01/11 08:27:46;;;;;;;42.75;23.17;;;3.60;53.30;;;;;;5012148;28;20539;-73
2021/01/11 08:30:15;;;;;;;44.95;24.60;;;3.50;53.50;;;;;;5012349;28;20447;-74
2021/01/11 08:32:42;;;;;;;41.53;24.63;;;3.60;54.00;;;;;;5012760;28;20438;-71
2021/01/11 08:35:14;;;;;;;38.20;23.70;;;3.50;54.00;;;;;;5012300;28;20496;-71
2021/01/11 08:37:41;;;;;;;44.92;24.98;;;3.40;55.00;;;;;;5010992;28;20389;-70
2021/01/11 08:40:19;;;;;;;43.22;24.38;;;3.40;55.60;;;;;;5012341;28;20902;-71
2021/01/11 08:42:48;;;;;;;39.13;24.00;;;3.50;55.30;;;;;;5014297;28;20380;-72
2021/01/11 08:45:33;;;;;;;41.53;24.10;;;3.60;54.30;;;;;;5014326;28;20389;-74
2021/01/11 08:48:04;;;;;;;47.47;23.33;;;3.60;54.10;;;;;;5012639;28;20401;-72
2021/01/11 08:50:30;;;;;;;42.30;23.87;;;3.70;53.90;;;;;;5011762;28;20420;-72
2021/01/11 08:52:56;;;;;;;39.63;23.70;;;3.70;52.20;;;;;;5011869;28;20413;-73
2021/01/11 08:55:22;;;;;;;45.22;23.63;;;3.70;52.50;;;;;;5012727;28;20396;-72
2021/01/11 08:57:58;;;;;;;36.93;21.43;;;3.70;52.10;;;;;;5011781;28;20389;-73
2021/01/11 09:00:25;;;;;;;37.85;21.15;;;3.60;52.30;;;;;;5016778;28;20410;-72
2021/01/11 09:02:50;;;;;;;35.17;21.20;;;3.70;51.80;;;;;;5012364;28;20385;-73
2021/01/11 09:05:19;;;;;;;38.50;21.15;;;3.80;50.40;;;;;;5011533;28;20810;-72
2021/01/11 09:07:45;;;;;;;40.60;21.20;;;3.80;49.50;;;;;;5013738;28;20420;-72
2021/01/11 09:10:19;;;;;;;39.13;20.98;;;3.80;50.20;;;;;;5012070;28;20385;-72
2021/01/11 09:12:46;;;;;;;42.95;21.95;;;3.70;50.40;;;;;;5001016;28;20784;-72
2021/01/11 09:15:12;;;;;;;37.03;20.17;;;3.80;50.60;;;;;;4994128;28;20394;-73
2021/01/11 09:17:38;;;;;;;37.03;19.77;;;3.80;50.10;;;;;;5010840;28;20408;-73
2021/01/11 09:20:06;;;;;;;35.23;19.80;;;3.90;49.10;;;;;;5009933;28;20805;-73
2021/01/11 09:22:39;;;;;;;31.90;19.17;;;4.00;48.70;;;;;;5011014;28;20416;-73
2021/01/11 09:25:10;;;;;;;43.75;22.67;;;3.90;48.60;;;;;;5010778;28;20400;-73
2021/01/11 09:27:39;;;;;;;63.40;34.45;;;3.90;48.50;;;;;;5011212;28;20387;-72
2021/01/11 09:30:07;;;;;;;51.53;28.48;;;4.00;49.60;;;;;;5011016;28;20399;-72
2021/01/11 09:32:34;;;;;;;62.88;34.00;;;4.20;48.50;;;;;;5011219;28;20960;-72
2021/01/11 09:34:59;;;;;;;30.95;18.33;;;4.20;47.40;;;;;;5011440;28;20400;-73
2021/01/11 09:37:26;;;;;;;29.27;17.77;;;4.10;47.00;;;;;;5013632;28;20466;-73
2021/01/11 09:39:51;;;;;;;35.63;21.55;;;4.10;47.00;;;;;;5015356;28;20388;-72
2021/01/11 09:42:17;;;;;;;34.55;19.33;;;4.10;46.90;;;;;;5016671;28;20985;-71
2021/01/11 09:44:43;;;;;;;36.70;19.43;;;4.10;46.70;;;;;;5013264;28;20396;-72
2021/01/11 09:47:10;;;;;;;40.67;24.80;;;4.10;47.70;;;;;;5012059;28;20400;-71
2021/01/11 09:49:35;;;;;;;56.30;30.40;;;4.00;47.70;;;;;;5012732;28;20385;-73
2021/01/11 09:52:01;;;;;;;26.03;16.13;;;4.10;47.10;;;;;;5010925;28;20470;-72
2021/01/11 09:54:27;;;;;;;32.30;17.13;;;4.10;46.20;;;;;;5010698;28;20475;-73
2021/01/11 09:56:52;;;;;;;36.25;20.38;;;4.20;46.60;;;;;;5010696;28;20396;-73
2021/01/11 09:59:18;;;;;;;27.80;15.98;;;4.20;47.80;;;;;;5010542;28;20417;-73
2021/01/11 10:01:48;;;;;;;27.63;16.00;;;4.20;46.40;;;;;;5009931;28;20894;-72
2021/01/11 10:04:16;;;;;;;27.80;16.05;;;4.20;45.80;;;;;;5010833;28;20458;-72
2021/01/11 10:06:43;;;;;;;27.38;16.30;;;4.10;46.70;;;;;;5009576;28;20428;-73
2021/01/11 10:09:10;;;;;;;30.90;15.32;;;4.10;47.60;;;;;;5009952;28;20401;-72
2021/01/11 10:11:36;;;;;;;27.52;16.75;;;4.20;47.00;;;;;;5009940;28;20408;-72
2021/01/11 10:14:02;;;;;;;26.25;15.10;;;4.10;47.70;;;;;;5014562;28;20886;-74
2021/01/11 10:16:28;;;;;;;29.77;16.27;;;4.10;48.00;;;;;;5013987;28;20395;-73
2021/01/11 10:18:53;;;;;;;26.42;14.77;;;4.20;48.30;;;;;;5000223;28;20386;-73
2021/01/11 10:21:19;;;;;;;26.52;14.85;;;4.20;47.70;;;;;;5007562;28;20388;-76
2021/01/11 10:23:45;;;;;;;28.83;15.38;;;4.10;48.40;;;;;;5012695;28;20493;-75
2021/01/11 10:26:17;;;;;;;27.33;15.33;;;4.10;48.50;;;;;;5011517;28;20403;-73
2021/01/11 10:28:43;;;;;;;28.17;15.70;;;4.10;49.00;;;;;;5010261;28;20476;-74
2021/01/11 10:31:08;;;;;;;27.20;15.07;;;4.00;50.00;;;;;;5010413;28;20491;-72
2021/01/11 10:33:34;;;;;;;27.17;16.30;;;4.00;50.60;;;;;;5009942;28;20381;-72
2021/01/11 10:36:00;;;;;;;27.17;16.77;;;4.00;50.90;;;;;;5009929;28;20397;-72
2021/01/11 10:38:25;;;;;;;26.58;15.15;;;4.00;51.70;;;;;;5009991;28;20385;-73
2021/01/11 10:40:51;;;;;;;28.80;15.90;;;4.10;50.20;;;;;;5009972;28;20416;-72
2021/01/11 10:43:16;;;;;;;24.57;14.83;;;4.10;49.40;;;;;;5008808;28;20385;-74
2021/01/11 10:45:42;;;;;;;24.67;14.00;;;4.00;49.70;;;;;;5009703;28;20395;-72
2021/01/11 10:48:07;;;;;;;20.63;13.37;;;4.10;48.60;;;;;;5009978;28;20483;-72
2021/01/11 10:50:33;;;;;;;21.13;13.90;;;4.00;47.70;;;;;;5008722;28;20424;-75
2021/01/11 10:52:59;;;;;;;23.35;12.90;;;4.00;47.80;;;;;;5009583;28;20401;-72
2021/01/11 10:55:24;;;;;;;20.58;12.98;;;4.00;47.70;;;;;;5010201;28;20385;-71
2021/01/11 10:57:50;;;;;;;22.27;12.43;;;4.00;46.90;;;;;;5010079;28;20435;-73
2021/01/11 11:00:18;;;;;;;18.55;12.73;;;3.90;46.50;;;;;;5009727;28;20389;-70
2021/01/11 11:02:44;;;;;;;22.25;11.43;;;3.90;47.60;;;;;;5014796;28;20392;-70
2021/01/11 11:05:11;;;;;;;22.85;12.00;;;3.90;45.60;;;;;;5014092;28;20388;-71
2021/01/11 11:07:38;;;;;;;23.27;11.80;;;3.90;45.70;;;;;;5015473;28;20459;-71
2021/01/11 11:10:08;;;;;;;26.67;12.25;;;3.90;46.70;;;;;;5014350;28;20395;-72
2021/01/11 11:12:35;;;;;;;17.45;10.75;;;4.00;45.30;;;;;;5010911;28;20391;-70
2021/01/11 11:15:01;;;;;;;18.33;10.77;;;3.90;45.80;;;;;;5015436;28;20444;-71
2021/01/11 11:17:32;;;;;;;17.88;10.80;;;4.10;44.20;;;;;;5014669;28;20416;-72
2021/01/11 11:20:01;;;;;;;22.10;12.15;;;4.00;44.80;;;;;;4998026;28;20383;-70
2021/01/11 11:22:27;;;;;;;15.55;10.52;;;4.00;45.40;;;;;;5014236;28;20396;-70
2021/01/11 11:24:53;;;;;;;17.52;10.70;;;4.10;45.40;;;;;;5014994;28;20412;-71
2021/01/11 11:27:19;;;;;;;16.60;10.30;;;4.10;44.60;;;;;;5014812;28;20488;-72
2021/01/11 11:29:45;;;;;;;16.98;11.55;;;4.10;44.20;;;;;;5013860;28;20411;-73
2021/01/11 11:32:11;;;;;;;20.15;11.15;;;4.10;45.10;;;;;;5009510;28;20486;-73
2021/01/11 11:34:39;;;;;;;16.83;10.98;;;4.20;45.60;;;;;;5009832;28;20389;-73
2021/01/11 11:37:05;;;;;;;17.60;11.20;;;4.20;45.40;;;;;;5009737;28;20846;-73
2021/01/11 11:39:31;;;;;;;18.37;11.57;;;4.10;45.90;;;;;;5009612;28;20507;-73
2021/01/11 11:41:58;;;;;;;20.40;10.60;;;4.30;45.20;;;;;;5009725;28;20909;-71
2021/01/11 11:44:24;;;;;;;23.10;11.35;;;4.30;44.50;;;;;;5010048;28;20947;-72
2021/01/11 11:46:50;;;;;;;15.10;10.17;;;4.20;45.60;;;;;;5009439;28;20512;-71
2021/01/11 11:49:15;;;;;;;19.00;11.07;;;4.20;44.90;;;;;;5009734;28;20399;-73
2021/01/11 11:51:45;;;;;;;21.17;11.80;;;4.30;44.40;;;;;;5009367;28;21205;-72
2021/01/11 11:54:11;;;;;;;17.40;10.75;;;4.30;44.70;;;;;;5009928;28;20953;-73
2021/01/11 11:56:40;;;;;;;22.63;11.67;;;4.20;45.30;;;;;;5009332;28;20476;-73
2021/01/11 11:59:07;;;;;;;21.23;10.80;;;4.10;45.50;;;;;;5010963;28;20404;-73
2021/01/11 12:01:38;;;;;;;18.75;10.90;;;4.20;45.40;;;;;;5012776;28;20425;-74
2021/01/11 12:04:04;;;;;;;17.65;11.05;;;4.30;45.90;;;;;;5013043;28;20479;-75
2021/01/11 12:06:56;;;;;;;19.15;11.00;;;4.30;44.70;;;;;;5012243;28;20468;-73
2021/01/11 12:09:21;;;;;;;22.05;11.15;;;4.30;44.80;;;;;;5010628;28;20826;-74
2021/01/11 12:11:51;;;;;;;23.63;10.80;;;4.20;45.00;;;;;;5011444;28;20444;-72
2021/01/11 12:14:17;;;;;;;21.73;11.23;;;4.20;45.70;;;;;;4999040;28;20447;-73
2021/01/11 12:16:47;;;;;;;19.40;10.70;;;4.30;44.50;;;;;;5011541;28;20389;-71
2021/01/11 12:19:13;;;;;;;17.27;10.88;;;4.40;44.00;;;;;;5012882;28;20390;-71
2021/01/11 12:21:38;;;;;;;16.47;10.93;;;4.40;43.80;;;;;;5012251;28;20385;-72
2021/01/11 12:24:04;;;;;;;20.10;10.77;;;4.50;43.20;;;;;;5013707;28;20377;-73
2021/01/11 12:26:43;;;;;;;19.90;11.18;;;4.50;43.50;;;;;;5015691;28;20447;-71
2021/01/11 12:29:09;;;;;;;20.77;11.48;;;4.50;43.80;;;;;;4998382;28;20405;-74
2021/01/11 12:31:35;;;;;;;18.83;10.98;;;4.40;44.20;;;;;;4998989;28;20832;-73
2021/01/11 12:34:01;;;;;;;15.97;10.60;;;4.50;44.70;;;;;;5019474;28;20441;-73
2021/01/11 12:36:28;;;;;;;17.02;10.30;;;4.50;43.90;;;;;;5019189;28;20751;-71
2021/01/11 12:38:54;;;;;;;16.25;10.32;;;4.50;44.50;;;;;;5018310;28;20393;-73
2021/01/11 12:41:21;;;;;;;17.33;10.93;;;4.50;44.40;;;;;;5014659;28;20783;-71
2021/01/11 12:43:47;;;;;;;20.55;11.73;;;4.40;44.40;;;;;;5012190;28;20393;-72